Time;durP1;ratioP1;P1;durP2;ratioP2;P2;SDS_P1;SDS_P2;PMS_P1;PMS_P2;Temp;Humidity;BMP_temperature;BMP_pressure;BME280_temperature;BME280_humidity;BME280_pressure;Samples;Min_cycle;Max_cycle;Signal;HPM_P1;HPM_P2
2024/03/05 00:00:22;;;;;;;12.38;2.50;;;;;;;;;;5012914;28;20021;-92
2024/03/05 00:02:49;;;;;;;17.63;2.90;;;;;;;;;;5011447;28;20026;-91
2024/03/05 00:05:14;;;;;;;15.50;2.42;;;;;;;;;;5011982;28;20243;-92
2024/03/05 00:07:39;;;;;;;10.17;2.43;;;;;;;;;;5013300;28;20018;-92
2024/03/05 00:10:05;;;;;;;22.17;2.95;;;;;;;;;;5013178;28;20279;-93
2024/03/05 00:12:30;;;;;;;23.45;3.38;;;;;;;;;;5010698;28;20388;-92
2024/03/05 00:14:56;;;;;;;8.38;2.15;;;;;;;;;;5012827;28;20380;-91
2024/03/05 00:17:23;;;;;;;13.00;3.35;;;;;;;;;;5011894;28;20101;-91
2024/03/05 00:19:49;;;;;;;13.57;2.65;;;;;;;;;;5013069;28;20052;-92
2024/03/05 00:22:14;;;;;;;9.43;2.05;;;;;;;;;;5011857;28;20415;-91
2024/03/05 00:24:40;;;;;;;19.83;3.03;;;;;;;;;;5011875;28;20061;-92
2024/03/05 00:27:05;;;;;;;18.55;2.75;;;;;;;;;;5012846;28;20345;-92
2024/03/05 00:29:30;;;;;;;23.10;4.80;;;;;;;;;;5012197;28;20036;-92
2024/03/05 00:31:55;;;;;;;14.90;2.57;;;;;;;;;;5011943;28;20492;-92
2024/03/05 00:34:20;;;;;;;8.87;1.57;;;;;;;;;;5011497;28;20685;-92
2024/03/05 00:36:46;;;;;;;15.50;2.07;;;;;;;;;;5011394;28;20260;-90
2024/03/05 00:39:12;;;;;;;14.75;3.08;;;;;;;;;;5011636;28;20270;-91
2024/03/05 00:41:37;;;;;;;13.68;1.98;;;;;;;;;;5011515;28;20363;-92
2024/03/05 00:44:04;;;;;;;10.65;1.58;;;;;;;;;;4997981;28;20101;-92
2024/03/05 00:46:30;;;;;;;12.80;2.45;;;;;;;;;;4991908;28;20022;-92
2024/03/05 00:48:55;;;;;;;8.25;1.25;;;;;;;;;;4993031;28;20032;-92
2024/03/05 00:51:20;;;;;;;13.07;2.10;;;;;;;;;;4992988;28;20084;-92
2024/03/05 00:53:47;;;;;;;24.25;4.78;;;;;;;;;;4991367;28;20025;-92
2024/03/05 00:56:12;;;;;;;12.57;2.30;;;;;;;;;;4992970;28;20025;-92
2024/03/05 00:58:37;;;;;;;15.48;2.05;;;;;;;;;;4992901;28;20018;-92
2024/03/05 01:01:03;;;;;;;13.40;2.40;;;;;;;;;;4991742;28;20022;-92
2024/03/05 01:03:28;;;;;;;15.73;3.22;;;;;;;;;;4992911;28;20247;-93
2024/03/05 01:05:54;;;;;;;17.70;2.63;;;;;;;;;;4991597;28;20022;-92
2024/03/05 01:08:19;;;;;;;9.07;2.28;;;;;;;;;;4999535;28;20217;-93
2024/03/05 01:10:45;;;;;;;16.30;2.17;;;;;;;;;;5012078;28;20037;-92
2024/03/05 01:13:11;;;;;;;14.90;2.45;;;;;;;;;;5012433;28;20260;-92
2024/03/05 01:15:36;;;;;;;13.00;3.03;;;;;;;;;;5012524;28;20032;-92
2024/03/05 01:18:02;;;;;;;9.18;1.85;;;;;;;;;;5011251;28;20060;-92
2024/03/05 01:20:27;;;;;;;12.20;2.05;;;;;;;;;;5011229;28;20018;-92
2024/03/05 01:22:52;;;;;;;11.27;1.95;;;;;;;;;;5011285;28;20121;-92
2024/03/05 01:25:18;;;;;;;12.20;2.28;;;;;;;;;;5010837;28;20022;-91
2024/03/05 01:27:43;;;;;;;8.20;1.70;;;;;;;;;;5010950;28;20029;-93
2024/03/05 01:30:11;;;;;;;15.25;1.77;;;;;;;;;;5011950;28;20029;-92
2024/03/05 01:32:37;;;;;;;30.00;2.75;;;;;;;;;;5011073;28;20052;-94
2024/03/05 01:35:08;;;;;;;17.40;3.65;;;;;;;;;;5011464;28;20090;-93
2024/03/05 01:37:34;;;;;;;14.07;2.47;;;;;;;;;;5005657;28;20022;-94
2024/03/05 01:39:59;;;;;;;15.33;2.63;;;;;;;;;;4991363;28;20031;-93
2024/03/05 01:42:24;;;;;;;13.83;1.70;;;;;;;;;;4991621;28;20305;-94
2024/03/05 01:44:49;;;;;;;10.23;1.83;;;;;;;;;;4991474;28;20278;-93
2024/03/05 01:47:16;;;;;;;14.23;2.07;;;;;;;;;;4992122;28;20112;-92
2024/03/05 01:49:41;;;;;;;14.55;3.40;;;;;;;;;;5012041;28;20687;-93
2024/03/05 01:52:07;;;;;;;18.05;2.67;;;;;;;;;;5011800;28;20053;-91
2024/03/05 01:54:32;;;;;;;16.27;2.10;;;;;;;;;;5010946;28;20544;-91
2024/03/05 01:57:01;;;;;;;19.88;2.55;;;;;;;;;;5010768;28;20259;-93
2024/03/05 01:59:26;;;;;;;13.48;1.90;;;;;;;;;;5010683;28;20629;-92
2024/03/05 02:01:52;;;;;;;12.68;2.33;;;;;;;;;;5011955;28;20025;-93
2024/03/05 02:04:18;;;;;;;16.23;1.70;;;;;;;;;;5011616;28;20026;-92
2024/03/05 02:06:44;;;;;;;30.63;4.20;;;;;;;;;;5011760;28;20425;-92
2024/03/05 02:09:12;;;;;;;20.38;1.85;;;;;;;;;;5011921;28;20030;-92
2024/03/05 02:11:38;;;;;;;12.95;2.05;;;;;;;;;;5010612;28;20063;-91
2024/03/05 02:14:03;;;;;;;14.48;1.85;;;;;;;;;;5011849;28;20026;-92
2024/03/05 02:16:29;;;;;;;12.15;1.92;;;;;;;;;;5011783;28;20014;-91
2024/03/05 02:18:54;;;;;;;13.20;1.95;;;;;;;;;;5009759;28;20065;-91
2024/03/05 02:21:21;;;;;;;8.83;1.80;;;;;;;;;;5011492;28;20046;-92
2024/03/05 02:23:46;;;;;;;6.63;1.55;;;;;;;;;;5014216;28;20598;-91
2024/03/05 02:26:11;;;;;;;7.97;1.50;;;;;;;;;;5015087;28;20160;-92
2024/03/05 02:28:38;;;;;;;9.93;1.70;;;;;;;;;;5015271;28;20032;-92
2024/03/05 02:31:03;;;;;;;10.40;2.00;;;;;;;;;;5015165;28;20037;-92
2024/03/05 02:33:29;;;;;;;15.73;1.80;;;;;;;;;;5014342;28;20030;-92
2024/03/05 02:35:58;;;;;;;13.15;2.05;;;;;;;;;;5014895;28;20259;-93
2024/03/05 02:38:23;;;;;;;14.55;1.80;;;;;;;;;;5015175;28;20041;-92
2024/03/05 02:40:48;;;;;;;12.20;1.85;;;;;;;;;;5013930;28;20080;-92
2024/03/05 02:43:13;;;;;;;10.43;2.17;;;;;;;;;;5014328;28;20054;-93
2024/03/05 02:45:39;;;;;;;12.33;1.87;;;;;;;;;;5013812;28;20848;-92
2024/03/05 02:48:04;;;;;;;19.40;2.17;;;;;;;;;;5013727;28;20251;-92
2024/03/05 02:50:29;;;;;;;12.60;1.83;;;;;;;;;;5014626;28;20034;-92
2024/03/05 02:52:56;;;;;;;18.73;1.85;;;;;;;;;;5014918;28;20463;-92
2024/03/05 02:55:21;;;;;;;22.20;2.47;;;;;;;;;;5013503;28;20024;-93
2024/03/05 02:57:46;;;;;;;7.38;1.85;;;;;;;;;;5013977;28;20379;-92
2024/03/05 03:00:18;;;;;;;17.13;2.25;;;;;;;;;;5013681;28;20022;-93
2024/03/05 03:02:50;;;;;;;9.90;1.45;;;;;;;;;;5013402;28;20014;-92
2024/03/05 03:05:16;;;;;;;11.65;1.40;;;;;;;;;;5014748;28;20072;-93
2024/03/05 03:07:43;;;;;;;17.17;2.33;;;;;;;;;;5014618;28;20488;-92
2024/03/05 03:10:09;;;;;;;18.58;3.40;;;;;;;;;;5013357;28;20032;-92
2024/03/05 03:12:35;;;;;;;12.93;3.20;;;;;;;;;;5013858;28;20539;-93
2024/03/05 03:15:00;;;;;;;13.97;1.53;;;;;;;;;;5014096;28;20105;-93
2024/03/05 03:17:25;;;;;;;11.18;1.85;;;;;;;;;;5014403;28;20350;-92
2024/03/05 03:19:50;;;;;;;11.67;1.60;;;;;;;;;;5014468;28;20014;-93
2024/03/05 03:22:16;;;;;;;10.30;1.87;;;;;;;;;;5013287;28;20259;-92
2024/03/05 03:24:42;;;;;;;16.92;1.80;;;;;;;;;;5013212;28;20286;-93
2024/03/05 03:27:07;;;;;;;11.73;2.58;;;;;;;;;;5012270;28;20056;-93
2024/03/05 03:29:34;;;;;;;14.98;1.58;;;;;;;;;;5014656;28;20069;-91
2024/03/05 03:31:59;;;;;;;8.05;1.55;;;;;;;;;;5014104;28;20044;-92
2024/03/05 03:34:24;;;;;;;15.10;1.83;;;;;;;;;;5014167;28;20022;-92
2024/03/05 03:36:49;;;;;;;8.88;1.27;;;;;;;;;;5013358;28;20279;-92
2024/03/05 03:39:23;;;;;;;9.52;1.13;;;;;;;;;;5013919;28;20460;-93
2024/03/05 03:41:51;;;;;;;15.77;1.80;;;;;;;;;;5012800;28;20022;-93
2024/03/05 03:44:17;;;;;;;7.72;1.65;;;;;;;;;;5012830;28;20017;-93
2024/03/05 03:46:42;;;;;;;8.07;1.13;;;;;;;;;;5012622;28;20472;-93
2024/03/05 03:49:07;;;;;;;15.18;3.70;;;;;;;;;;5012747;28;20076;-93
2024/03/05 03:51:33;;;;;;;16.00;1.97;;;;;;;;;;5011050;28;20026;-93
2024/03/05 03:53:59;;;;;;;11.07;1.70;;;;;;;;;;4994144;28;20264;-93
2024/03/05 03:56:24;;;;;;;8.30;1.80;;;;;;;;;;4992818;28;20056;-94
2024/03/05 03:58:50;;;;;;;12.68;1.75;;;;;;;;;;4992983;28;20101;-93
2024/03/05 04:01:15;;;;;;;6.80;1.58;;;;;;;;;;4994008;28;20049;-92
2024/03/05 04:03:40;;;;;;;14.77;3.10;;;;;;;;;;4994101;28;20007;-93
2024/03/05 04:06:06;;;;;;;19.45;2.22;;;;;;;;;;4995822;28;20291;-92
2024/03/05 04:08:31;;;;;;;8.15;1.42;;;;;;;;;;5013493;28;20093;-92
2024/03/05 04:10:56;;;;;;;18.17;2.92;;;;;;;;;;5013430;28;20041;-91
2024/03/05 04:13:22;;;;;;;15.70;2.15;;;;;;;;;;5013261;28;20010;-93
2024/03/05 04:15:47;;;;;;;8.55;1.98;;;;;;;;;;5011866;28;20021;-92
2024/03/05 04:18:12;;;;;;;8.15;1.80;;;;;;;;;;5012300;28;20444;-93
2024/03/05 04:20:37;;;;;;;10.15;1.40;;;;;;;;;;5011500;28;20034;-91
2024/03/05 04:23:03;;;;;;;16.23;2.78;;;;;;;;;;4994148;28;20018;-92
2024/03/05 04:25:30;;;;;;;12.40;1.70;;;;;;;;;;4992382;28;20113;-92
2024/03/05 04:27:56;;;;;;;11.13;1.98;;;;;;;;;;4992125;28;20105;-93
2024/03/05 04:30:23;;;;;;;14.93;1.63;;;;;;;;;;4993476;28;20197;-92
2024/03/05 04:32:51;;;;;;;9.90;1.40;;;;;;;;;;4992350;28;20050;-92
2024/03/05 04:35:16;;;;;;;18.95;3.55;;;;;;;;;;4993099;28;20023;-93
2024/03/05 04:37:42;;;;;;;9.40;2.30;;;;;;;;;;4992506;28;20029;-93
2024/03/05 04:40:10;;;;;;;11.57;3.30;;;;;;;;;;4993519;28;20034;-92
2024/03/05 04:42:35;;;;;;;23.17;2.83;;;;;;;;;;5008593;28;20041;-92
2024/03/05 04:45:01;;;;;;;20.27;1.52;;;;;;;;;;5007805;28;20476;-93
2024/03/05 04:47:26;;;;;;;19.70;2.03;;;;;;;;;;4998479;28;20031;-93
2024/03/05 04:49:51;;;;;;;30.10;2.78;;;;;;;;;;4991993;28;20480;-93
2024/03/05 04:52:18;;;;;;;206.50;5.88;;;;;;;;;;4992276;28;20025;-92
2024/03/05 04:54:44;;;;;;;69.80;3.70;;;;;;;;;;4993396;28;20542;-92
2024/03/05 04:57:10;;;;;;;53.65;3.22;;;;;;;;;;4992932;28;20114;-92
2024/03/05 04:59:35;;;;;;;19.15;3.45;;;;;;;;;;4992982;28;20094;-92
2024/03/05 05:02:01;;;;;;;16.90;2.93;;;;;;;;;;5005472;28;20099;-92
2024/03/05 05:04:26;;;;;;;18.67;2.25;;;;;;;;;;5011146;28;20271;-92
2024/03/05 05:06:52;;;;;;;8.60;1.58;;;;;;;;;;5012604;28;20021;-92
2024/03/05 05:09:20;;;;;;;10.30;2.42;;;;;;;;;;5011398;28;20021;-93
2024/03/05 05:11:46;;;;;;;17.65;1.80;;;;;;;;;;5012702;28;20112;-93
2024/03/05 05:14:11;;;;;;;16.98;1.85;;;;;;;;;;5011180;28;20546;-92
2024/03/05 05:16:36;;;;;;;16.33;1.60;;;;;;;;;;5011556;28;20025;-93
2024/03/05 05:19:04;;;;;;;9.90;1.63;;;;;;;;;;5012563;28;20014;-93
2024/03/05 05:21:30;;;;;;;14.48;2.08;;;;;;;;;;5011408;28;20756;-92
2024/03/05 05:23:55;;;;;;;9.30;1.95;;;;;;;;;;5012388;28;20102;-93
2024/03/05 05:26:20;;;;;;;11.88;1.75;;;;;;;;;;5011311;28;20022;-93
2024/03/05 05:28:45;;;;;;;13.77;1.95;;;;;;;;;;5011199;28;20014;-92
2024/03/05 05:31:22;;;;;;;10.40;1.60;;;;;;;;;;5012392;28;20070;-93
2024/03/05 05:33:48;;;;;;;7.93;2.22;;;;;;;;;;5011280;28;20586;-92
2024/03/05 05:36:14;;;;;;;13.52;1.95;;;;;;;;;;5012453;28;20022;-93
2024/03/05 05:38:39;;;;;;;6.35;1.40;;;;;;;;;;5011222;28;20538;-94
2024/03/05 05:41:05;;;;;;;17.63;2.20;;;;;;;;;;5011285;28;20054;-93
2024/03/05 05:43:30;;;;;;;19.42;1.80;;;;;;;;;;5011042;28;20303;-93
2024/03/05 05:45:55;;;;;;;5.67;1.67;;;;;;;;;;5012378;28;20476;-93
2024/03/05 05:48:26;;;;;;;7.50;1.83;;;;;;;;;;5011143;28;20339;-93
2024/03/05 05:50:55;;;;;;;7.15;1.85;;;;;;;;;;5011091;28;20349;-94
2024/03/05 05:53:20;;;;;;;11.43;2.45;;;;;;;;;;5010948;28;20510;-93
2024/03/05 05:55:45;;;;;;;7.60;2.05;;;;;;;;;;5010157;28;20022;-92
2024/03/05 05:58:13;;;;;;;11.80;2.23;;;;;;;;;;5013750;28;20376;-93
2024/03/05 06:00:39;;;;;;;21.40;2.40;;;;;;;;;;5016002;28;20334;-92
2024/03/05 06:03:07;;;;;;;23.33;2.78;;;;;;;;;;5015902;28;20022;-92
2024/03/05 06:05:35;;;;;;;18.92;2.53;;;;;;;;;;5014683;28;20476;-93
2024/03/05 06:08:00;;;;;;;16.23;2.13;;;;;;;;;;5015707;28;20156;-92
2024/03/05 06:10:25;;;;;;;17.50;2.10;;;;;;;;;;5012197;28;20565;-92
2024/03/05 06:12:50;;;;;;;13.98;2.10;;;;;;;;;;4995082;28;20069;-92
2024/03/05 06:15:19;;;;;;;10.90;1.90;;;;;;;;;;4996055;28;20037;-92
2024/03/05 06:17:45;;;;;;;9.55;3.08;;;;;;;;;;4995022;28;20030;-93
2024/03/05 06:20:11;;;;;;;15.70;2.63;;;;;;;;;;5011895;28;20026;-94
2024/03/05 06:22:39;;;;;;;12.60;2.13;;;;;;;;;;5014478;28;20026;-93
2024/03/05 06:25:07;;;;;;;18.20;2.30;;;;;;;;;;5014634;28;20109;-93
2024/03/05 06:27:34;;;;;;;7.95;1.70;;;;;;;;;;5014287;28;20109;-93
2024/03/05 06:30:00;;;;;;;9.98;2.15;;;;;;;;;;5014322;28;20083;-94
2024/03/05 06:32:25;;;;;;;13.82;2.72;;;;;;;;;;5014503;28;20060;-93
2024/03/05 06:34:50;;;;;;;13.18;1.98;;;;;;;;;;5015750;28;20420;-91
2024/03/05 06:37:15;;;;;;;8.90;2.15;;;;;;;;;;5014711;28;20084;-94
2024/03/05 06:39:41;;;;;;;8.90;2.17;;;;;;;;;;5019459;28;20026;-94
2024/03/05 06:42:10;;;;;;;14.10;2.78;;;;;;;;;;5018240;28;20679;-93
2024/03/05 06:44:36;;;;;;;16.38;4.60;;;;;;;;;;5016111;28;20045;-91
2024/03/05 06:47:01;;;;;;;9.48;4.40;;;;;;;;;;5015063;28;20112;-93
2024/03/05 06:49:29;;;;;;;9.02;4.00;;;;;;;;;;5001130;28;20062;-93
2024/03/05 06:56:39;;;;;;;12.93;4.47;;;;;;;;;;4996822;28;20014;-93
2024/03/05 06:57:23;;;;;;;17.60;5.22;;;;;;;;;;5015983;28;20033;-94
2024/03/05 06:59:49;;;;;;;12.88;4.70;;;;;;;;;;5015586;28;20018;-94
2024/03/05 07:02:14;;;;;;;25.48;5.72;;;;;;;;;;5014939;28;20029;-96
2024/03/05 07:04:40;;;;;;;16.87;5.73;;;;;;;;;;5013816;28;20498;-94
2024/03/05 07:07:07;;;;;;;15.90;5.88;;;;;;;;;;5015893;28;20734;-96
2024/03/05 07:09:33;;;;;;;14.13;4.90;;;;;;;;;;5024346;28;20041;-95
2024/03/05 07:11:59;;;;;;;11.30;4.88;;;;;;;;;;5015257;28;21251;-93
2024/03/05 07:14:24;;;;;;;13.32;5.25;;;;;;;;;;5013703;28;20006;-95
2024/03/05 07:16:50;;;;;;;12.13;4.25;;;;;;;;;;5000869;28;20080;-96
2024/03/05 07:19:15;;;;;;;15.00;4.38;;;;;;;;;;5012754;28;20079;-95
2024/03/05 07:21:40;;;;;;;8.27;3.92;;;;;;;;;;5014265;28;20061;-94
2024/03/05 07:24:06;;;;;;;11.43;4.70;;;;;;;;;;5013636;28;20534;-94
2024/03/05 07:26:34;;;;;;;11.77;4.13;;;;;;;;;;5006228;28;20750;-91
2024/03/05 07:28:59;;;;;;;11.43;4.43;;;;;;;;;;4993136;28;20022;-92
2024/03/05 07:31:27;;;;;;;6.95;2.92;;;;;;;;;;5011508;28;20040;-93
2024/03/05 07:33:52;;;;;;;9.10;2.92;;;;;;;;;;5009318;28;20069;-92
2024/03/05 07:36:17;;;;;;;8.70;3.15;;;;;;;;;;4997718;28;20116;-90
2024/03/05 07:38:42;;;;;;;7.57;2.57;;;;;;;;;;4995779;28;20045;-94
2024/03/05 07:41:08;;;;;;;16.48;3.08;;;;;;;;;;4999009;28;20761;-94
2024/03/05 07:43:33;;;;;;;6.97;1.98;;;;;;;;;;5010389;28;20434;-92
2024/03/05 07:45:58;;;;;;;12.52;3.08;;;;;;;;;;5001143;28;20068;-92
2024/03/05 07:48:23;;;;;;;13.75;2.17;;;;;;;;;;5013221;28;20025;-93
2024/03/05 07:50:49;;;;;;;15.13;2.25;;;;;;;;;;5008046;28;20033;-94
2024/03/05 07:53:14;;;;;;;15.73;3.28;;;;;;;;;;5012614;28;20507;-93
2024/03/05 07:55:41;;;;;;;12.07;4.53;;;;;;;;;;5012594;28;20017;-94
2024/03/05 07:58:07;;;;;;;14.07;4.70;;;;;;;;;;5013101;28;20018;-95
2024/03/05 08:00:32;;;;;;;9.80;4.88;;;;;;;;;;4996531;28;20026;-94
2024/03/05 08:02:57;;;;;;;11.90;5.65;;;;;;;;;;4994567;28;20087;-94
2024/03/05 08:05:23;;;;;;;14.07;5.15;;;;;;;;;;4995509;28;20036;-92
2024/03/05 08:07:51;;;;;;;15.02;5.97;;;;;;;;;;5005975;28;20123;-90
2024/03/05 08:10:16;;;;;;;11.05;4.78;;;;;;;;;;5012953;28;20030;-90
2024/03/05 08:12:43;;;;;;;8.95;3.83;;;;;;;;;;5012605;28;20423;-91
2024/03/05 08:15:15;;;;;;;9.40;3.20;;;;;;;;;;5002268;28;20018;-91
2024/03/05 08:17:40;;;;;;;15.68;6.35;;;;;;;;;;5008378;28;20037;-91
2024/03/05 08:20:09;;;;;;;15.55;6.47;;;;;;;;;;4998187;28;20014;-89
2024/03/05 08:22:35;;;;;;;15.13;7.32;;;;;;;;;;5004813;28;20022;-90
2024/03/05 08:25:09;;;;;;;20.45;7.32;;;;;;;;;;5007386;28;20025;-91
2024/03/05 08:27:34;;;;;;;18.60;7.15;;;;;;;;;;5009963;28;20050;-89
2024/03/05 08:30:00;;;;;;;14.38;7.38;;;;;;;;;;4992973;28;20038;-90
2024/03/05 08:32:25;;;;;;;17.30;7.45;;;;;;;;;;4994835;28;20014;-90
2024/03/05 08:34:51;;;;;;;18.90;8.55;;;;;;;;;;5010547;28;20053;-89
2024/03/05 08:37:17;;;;;;;17.45;8.45;;;;;;;;;;5012579;28;20069;-91
2024/03/05 08:39:42;;;;;;;15.73;8.50;;;;;;;;;;5012646;28;20018;-89
2024/03/05 08:42:07;;;;;;;23.50;8.93;;;;;;;;;;5010093;28;20268;-90
2024/03/05 08:44:32;;;;;;;14.13;8.53;;;;;;;;;;5011927;28;20041;-91
2024/03/05 08:46:58;;;;;;;11.47;7.50;;;;;;;;;;4996445;28;20618;-91
2024/03/05 08:49:25;;;;;;;15.27;8.55;;;;;;;;;;4996356;28;20784;-92
2024/03/05 08:51:50;;;;;;;13.98;8.27;;;;;;;;;;5011252;28;20057;-92
2024/03/05 08:54:16;;;;;;;14.30;6.82;;;;;;;;;;5011171;28;20049;-93
2024/03/05 08:56:41;;;;;;;15.67;8.57;;;;;;;;;;5010712;28;20018;-91
2024/03/05 08:59:07;;;;;;;13.82;7.70;;;;;;;;;;5008973;28;20267;-93
2024/03/05 09:01:36;;;;;;;14.00;7.40;;;;;;;;;;5007218;28;20168;-92
2024/03/05 09:04:03;;;;;;;17.80;9.13;;;;;;;;;;4992576;28;20018;-92
2024/03/05 09:06:30;;;;;;;12.35;7.10;;;;;;;;;;4991548;28;20491;-92
2024/03/05 09:08:55;;;;;;;12.25;6.95;;;;;;;;;;4991322;28;20392;-93
2024/03/05 09:11:20;;;;;;;9.87;6.13;;;;;;;;;;4992065;28;20045;-92
2024/03/05 09:13:46;;;;;;;9.20;5.95;;;;;;;;;;4992598;28;20252;-92
2024/03/05 09:16:12;;;;;;;11.55;6.13;;;;;;;;;;4995540;28;20126;-92
2024/03/05 09:18:37;;;;;;;10.80;6.40;;;;;;;;;;5008956;28;20061;-91
2024/03/05 09:21:03;;;;;;;11.05;6.50;;;;;;;;;;5011709;28;20424;-91
2024/03/05 09:23:28;;;;;;;15.40;7.05;;;;;;;;;;4999742;28;20497;-92
2024/03/05 09:25:54;;;;;;;10.70;6.30;;;;;;;;;;5005169;28;20081;-92
2024/03/05 09:28:19;;;;;;;12.93;6.15;;;;;;;;;;5012020;28;20255;-92
2024/03/05 09:30:45;;;;;;;12.75;6.00;;;;;;;;;;5011014;28;20081;-92
2024/03/05 09:33:10;;;;;;;10.07;6.32;;;;;;;;;;5017719;28;20029;-92
2024/03/05 09:35:35;;;;;;;9.40;5.93;;;;;;;;;;5019243;28;20025;-94
2024/03/05 09:38:01;;;;;;;16.17;6.78;;;;;;;;;;5004105;28;20030;-95
2024/03/05 09:40:27;;;;;;;13.15;6.70;;;;;;;;;;5018692;28;20021;-94
2024/03/05 09:42:56;;;;;;;12.13;6.07;;;;;;;;;;5019535;28;20309;-95
2024/03/05 09:45:23;;;;;;;10.73;6.90;;;;;;;;;;5021039;28;20480;-94
2024/03/05 09:47:49;;;;;;;15.88;6.07;;;;;;;;;;5018517;28;20389;-95
2024/03/05 09:50:15;;;;;;;8.57;5.45;;;;;;;;;;5014324;28;20044;-93
2024/03/05 09:52:43;;;;;;;8.20;5.55;;;;;;;;;;5003111;28;20026;-94
2024/03/05 09:55:08;;;;;;;10.77;5.82;;;;;;;;;;4998212;28;20034;-93
2024/03/05 09:57:34;;;;;;;7.13;4.95;;;;;;;;;;5001929;28;20026;-94
2024/03/05 09:59:59;;;;;;;10.82;5.97;;;;;;;;;;4998370;28;20485;-94
2024/03/05 10:02:26;;;;;;;7.82;5.13;;;;;;;;;;5015893;28;20083;-92
2024/03/05 10:04:52;;;;;;;13.75;5.70;;;;;;;;;;5018888;28;20013;-93
2024/03/05 10:07:27;;;;;;;10.77;5.57;;;;;;;;;;5018757;28;20121;-95
2024/03/05 10:10:03;;;;;;;9.40;5.18;;;;;;;;;;4998969;28;20388;-94
2024/03/05 10:12:28;;;;;;;8.73;4.78;;;;;;;;;;5009309;28;20080;-92
2024/03/05 10:14:53;;;;;;;9.95;5.68;;;;;;;;;;5014109;28;20022;-93
2024/03/05 10:17:18;;;;;;;9.95;5.53;;;;;;;;;;5007844;28;20491;-92
2024/03/05 10:19:44;;;;;;;11.82;6.53;;;;;;;;;;5017314;28;20494;-93
2024/03/05 10:22:10;;;;;;;10.45;4.85;;;;;;;;;;5017397;28;20472;-94
2024/03/05 10:24:35;;;;;;;11.02;5.68;;;;;;;;;;5017426;28;20018;-93
2024/03/05 10:27:01;;;;;;;10.63;4.97;;;;;;;;;;5009301;28;20030;-93
2024/03/05 10:29:34;;;;;;;15.00;5.13;;;;;;;;;;4997551;28;20330;-93
2024/03/05 10:32:03;;;;;;;10.57;5.15;;;;;;;;;;4997677;28;20106;-93
2024/03/05 10:34:28;;;;;;;11.90;5.60;;;;;;;;;;4997477;28;20494;-93
2024/03/05 10:36:53;;;;;;;10.23;4.63;;;;;;;;;;5002941;28;20045;-92
2024/03/05 10:39:19;;;;;;;9.87;4.20;;;;;;;;;;5017016;28;20334;-93
2024/03/05 10:41:48;;;;;;;9.48;4.28;;;;;;;;;;5017253;28;20259;-92
2024/03/05 10:44:14;;;;;;;9.32;4.60;;;;;;;;;;5014120;28;20052;-92
2024/03/05 10:46:41;;;;;;;9.25;4.03;;;;;;;;;;5013793;28;20049;-92
2024/03/05 10:49:07;;;;;;;13.73;5.40;;;;;;;;;;5013964;28;20476;-93
2024/03/05 10:51:39;;;;;;;10.52;4.63;;;;;;;;;;5009000;28;20043;-92
2024/03/05 10:54:07;;;;;;;;;;;;;;;;;;4994839;28;20057;-93
2024/03/05 10:56:35;;;;;;;8.13;3.88;;;;;;;;;;4995534;28;19929;-93
2024/03/05 11:01:42;;;;;;;17.17;3.33;;;;;;;;;;4995296;28;20458;-93
2024/03/05 11:04:11;;;;;;;13.80;3.53;;;;;;;;;;4993839;28;20117;-92
2024/03/05 11:06:40;;;;;;;14.02;3.58;;;;;;;;;;5000455;28;20024;-93
2024/03/05 11:09:07;;;;;;;18.15;3.13;;;;;;;;;;5013593;28;20026;-93
2024/03/05 11:11:33;;;;;;;12.02;2.58;;;;;;;;;;5014779;28;20546;-92
2024/03/05 11:14:01;;;;;;;11.15;2.55;;;;;;;;;;5013597;28;20044;-93
2024/03/05 11:16:28;;;;;;;10.88;2.70;;;;;;;;;;5013325;28;20025;-93
2024/03/05 11:18:53;;;;;;;12.43;3.08;;;;;;;;;;5014535;28;20447;-92
2024/03/05 11:21:21;;;;;;;14.73;2.40;;;;;;;;;;5006163;28;20110;-93
2024/03/05 11:23:47;;;;;;;11.88;2.78;;;;;;;;;;4993950;28;20252;-93
2024/03/05 11:26:19;;;;;;;16.40;3.40;;;;;;;;;;4993448;28;20030;-94
2024/03/05 11:28:45;;;;;;;16.70;3.25;;;;;;;;;;4993890;28;20087;-93
2024/03/05 11:31:18;;;;;;;13.60;3.05;;;;;;;;;;4997443;28;20535;-93
2024/03/05 11:33:51;;;;;;;12.32;3.38;;;;;;;;;;5000201;28;20022;-93
2024/03/05 11:36:20;;;;;;;11.18;2.85;;;;;;;;;;4993448;28;20101;-92
2024/03/05 11:39:15;;;;;;;11.85;3.35;;;;;;;;;;4993517;28;20500;-93
2024/03/05 11:41:41;;;;;;;14.60;3.10;;;;;;;;;;4993692;28;20042;-93
2024/03/05 11:44:06;;;;;;;12.98;3.05;;;;;;;;;;4993559;28;20485;-93
2024/03/05 11:46:45;;;;;;;14.85;3.53;;;;;;;;;;4994663;28;20056;-93
2024/03/05 11:49:10;;;;;;;13.38;2.25;;;;;;;;;;4994143;28;20435;-93
2024/03/05 11:51:37;;;;;;;19.02;2.67;;;;;;;;;;4994668;28;20101;-93
2024/03/05 11:54:02;;;;;;;15.02;2.83;;;;;;;;;;4993308;28;20023;-93
2024/03/05 11:56:27;;;;;;;18.20;3.35;;;;;;;;;;4992246;28;20038;-94
2024/03/05 11:58:56;;;;;;;13.35;2.90;;;;;;;;;;5006554;28;20038;-93
2024/03/05 12:01:23;;;;;;;21.83;3.80;;;;;;;;;;5014143;28;20022;-93
2024/03/05 12:03:51;;;;;;;12.93;2.53;;;;;;;;;;5012942;28;20044;-94
2024/03/05 12:06:17;;;;;;;14.02;3.40;;;;;;;;;;5012687;28;20030;-94
2024/03/05 12:08:42;;;;;;;18.30;3.53;;;;;;;;;;5012998;28;20029;-94
2024/03/05 12:11:08;;;;;;;17.20;2.90;;;;;;;;;;5012636;28;20480;-95
2024/03/05 12:13:33;;;;;;;13.50;3.40;;;;;;;;;;4999847;28;20268;-94
2024/03/05 12:16:13;;;;;;;16.38;3.47;;;;;;;;;;4992909;28;20026;-94
2024/03/05 12:18:39;;;;;;;14.77;3.38;;;;;;;;;;4993166;28;20018;-94
2024/03/05 12:21:06;;;;;;;12.35;2.40;;;;;;;;;;4993056;28;20077;-94
2024/03/05 12:23:32;;;;;;;13.77;2.53;;;;;;;;;;5003226;28;20045;-95
2024/03/05 12:25:58;;;;;;;18.08;2.80;;;;;;;;;;5012286;28;20034;-94
2024/03/05 12:28:23;;;;;;;20.02;2.88;;;;;;;;;;5012634;28;20029;-93
2024/03/05 12:30:50;;;;;;;14.65;2.65;;;;;;;;;;5012322;28;20484;-94
2024/03/05 12:33:19;;;;;;;15.93;2.35;;;;;;;;;;5013720;28;20022;-94
2024/03/05 12:35:48;;;;;;;12.32;2.60;;;;;;;;;;5012453;28;20056;-94
2024/03/05 12:38:13;;;;;;;16.75;2.88;;;;;;;;;;5003277;28;20014;-93
2024/03/05 12:40:41;;;;;;;14.75;2.17;;;;;;;;;;4992819;28;20472;-94
2024/03/05 12:43:07;;;;;;;12.15;2.28;;;;;;;;;;4992579;28;20054;-94
2024/03/05 12:45:33;;;;;;;9.30;2.25;;;;;;;;;;4992666;28;20046;-94
2024/03/05 12:47:59;;;;;;;20.38;2.40;;;;;;;;;;4996314;28;20026;-93
2024/03/05 12:50:24;;;;;;;12.57;2.58;;;;;;;;;;5013803;28;20029;-93
2024/03/05 12:53:02;;;;;;;13.27;2.80;;;;;;;;;;5012082;28;20491;-94
2024/03/05 12:55:27;;;;;;;10.48;2.40;;;;;;;;;;5010708;28;20024;-93
2024/03/05 12:58:02;;;;;;;14.43;2.95;;;;;;;;;;5013348;28;20032;-94
2024/03/05 13:00:28;;;;;;;12.20;2.20;;;;;;;;;;5012012;28;20025;-93
2024/03/05 13:02:53;;;;;;;14.93;2.57;;;;;;;;;;5011590;28;20025;-93
2024/03/05 13:05:19;;;;;;;15.07;2.97;;;;;;;;;;5011998;28;20266;-93
2024/03/05 13:07:44;;;;;;;10.13;2.65;;;;;;;;;;5011900;28;20041;-94
2024/03/05 13:10:12;;;;;;;9.80;2.22;;;;;;;;;;5012927;28;20037;-94
2024/03/05 13:12:43;;;;;;;10.95;2.75;;;;;;;;;;5012481;28;20048;-93
2024/03/05 13:15:09;;;;;;;12.93;2.47;;;;;;;;;;5013022;28;20037;-93
2024/03/05 13:17:34;;;;;;;12.95;2.70;;;;;;;;;;5011761;28;20018;-93
2024/03/05 13:19:59;;;;;;;11.77;2.27;;;;;;;;;;5012062;28;20021;-93
2024/03/05 13:22:24;;;;;;;22.53;3.00;;;;;;;;;;5012907;28;20335;-92
2024/03/05 13:24:54;;;;;;;13.63;2.77;;;;;;;;;;5011830;28;20263;-93
2024/03/05 13:27:19;;;;;;;14.55;2.40;;;;;;;;;;5011351;28;20339;-92
2024/03/05 13:29:45;;;;;;;8.60;2.20;;;;;;;;;;5012907;28;20030;-93
2024/03/05 13:32:11;;;;;;;10.98;1.52;;;;;;;;;;5011391;28;20030;-93
2024/03/05 13:34:36;;;;;;;12.70;3.08;;;;;;;;;;5000542;28;20037;-92
2024/03/05 13:37:01;;;;;;;15.07;2.97;;;;;;;;;;4991557;28;20033;-93
2024/03/05 13:39:26;;;;;;;13.67;2.27;;;;;;;;;;4991849;28;20280;-93
2024/03/05 13:41:52;;;;;;;13.95;2.67;;;;;;;;;;4991952;28;20275;-93
2024/03/05 13:44:20;;;;;;;12.60;2.03;;;;;;;;;;4992732;28;20018;-93
2024/03/05 13:46:45;;;;;;;11.73;2.63;;;;;;;;;;4992885;28;20022;-93
2024/03/05 13:49:11;;;;;;;18.35;3.72;;;;;;;;;;4992914;28;20109;-93
2024/03/05 13:51:37;;;;;;;12.90;1.90;;;;;;;;;;4993015;28;20161;-93
2024/03/05 13:54:03;;;;;;;10.55;1.67;;;;;;;;;;4992668;28;20022;-93
2024/03/05 13:56:30;;;;;;;14.85;2.30;;;;;;;;;;4991460;28;20026;-93
2024/03/05 13:58:57;;;;;;;8.93;1.45;;;;;;;;;;4991476;28;20629;-94
2024/03/05 14:01:23;;;;;;;13.80;2.03;;;;;;;;;;4991434;28;20057;-92
2024/03/05 14:03:49;;;;;;;14.48;1.70;;;;;;;;;;4993260;28;20022;-93
2024/03/05 14:06:16;;;;;;;9.10;1.73;;;;;;;;;;5011014;28;20021;-92
2024/03/05 14:08:43;;;;;;;16.15;2.00;;;;;;;;;;5011110;28;20263;-93
2024/03/05 14:11:08;;;;;;;14.65;2.03;;;;;;;;;;5010996;28;20067;-93
2024/03/05 14:13:33;;;;;;;9.85;2.38;;;;;;;;;;5011015;28;20487;-93
2024/03/05 14:15:59;;;;;;;11.75;2.35;;;;;;;;;;5012073;28;20021;-93
2024/03/05 14:18:24;;;;;;;10.73;1.92;;;;;;;;;;5011841;28;20025;-93
2024/03/05 14:20:51;;;;;;;9.73;2.20;;;;;;;;;;5014876;28;20026;-93
2024/03/05 14:23:16;;;;;;;10.95;2.67;;;;;;;;;;5014775;28;20353;-93
2024/03/05 14:25:43;;;;;;;17.27;2.35;;;;;;;;;;5016083;28;20049;-93
2024/03/05 14:28:11;;;;;;;11.38;2.60;;;;;;;;;;5015826;28;20021;-93
2024/03/05 14:30:36;;;;;;;14.70;2.90;;;;;;;;;;5013817;28;20034;-94
2024/03/05 14:33:04;;;;;;;8.45;1.88;;;;;;;;;;5015964;28;20029;-92